Time;durP1;ratioP1;P1;durP2;ratioP2;P2;SDS_P1;SDS_P2;PMS_P1;PMS_P2;Temp;Humidity;BMP_temperature;BMP_pressure;BME280_temperature;BME280_humidity;BME280_pressure;Samples;Min_cycle;Max_cycle;Signal;HPM_P1;HPM_P2
2023/06/24 00:01:52;;;;;;;6.90;5.13;;;17.00;79.40;;;;;;5069560;28;20553;-78
2023/06/24 00:04:23;;;;;;;9.45;5.70;;;17.00;79.30;;;;;;5068152;28;20040;-79
2023/06/24 00:06:52;;;;;;;7.72;5.32;;;16.90;79.30;;;;;;5086261;28;20056;-79
2023/06/24 00:09:19;;;;;;;8.20;5.90;;;16.90;79.40;;;;;;5084049;28;20059;-80
2023/06/24 00:11:48;;;;;;;7.80;4.90;;;16.90;79.50;;;;;;5068986;28;20511;-77
2023/06/24 00:14:15;;;;;;;7.30;5.10;;;16.90;79.60;;;;;;5067224;28;20102;-79
2023/06/24 00:16:42;;;;;;;7.38;4.80;;;16.90;79.40;;;;;;5081593;28;20086;-78
2023/06/24 00:19:09;;;;;;;7.15;5.07;;;16.90;79.30;;;;;;5070409;28;20044;-80
2023/06/24 00:21:39;;;;;;;8.23;5.10;;;16.90;79.40;;;;;;5066207;28;20052;-80
2023/06/24 00:24:06;;;;;;;8.18;4.90;;;16.90;79.30;;;;;;5067979;28;20171;-79
2023/06/24 00:26:33;;;;;;;6.68;4.90;;;16.80;79.20;;;;;;5066590;28;20052;-78
2023/06/24 00:29:00;;;;;;;7.07;4.72;;;16.80;79.40;;;;;;5070664;28;20048;-79
2023/06/24 00:31:27;;;;;;;7.95;4.90;;;16.70;79.50;;;;;;5065424;28;23486;-78
2023/06/24 00:33:54;;;;;;;6.75;4.70;;;16.80;79.50;;;;;;5065930;28;20036;-77
2023/06/24 00:36:21;;;;;;;6.90;4.82;;;16.70;79.50;;;;;;5065736;28;20048;-78
2023/06/24 00:38:49;;;;;;;7.13;4.68;;;16.70;79.40;;;;;;5069004;28;20131;-80
2023/06/24 00:41:18;;;;;;;7.43;4.40;;;16.70;79.50;;;;;;5065595;28;20071;-80
2023/06/24 00:43:45;;;;;;;6.18;4.45;;;16.60;79.70;;;;;;5066699;28;20059;-78
2023/06/24 00:46:13;;;;;;;6.93;4.95;;;16.60;79.70;;;;;;5067357;28;20045;-80
2023/06/24 00:48:40;;;;;;;7.43;4.97;;;16.50;79.70;;;;;;5067175;28;20049;-79
2023/06/24 00:51:07;;;;;;;7.88;5.03;;;16.60;79.70;;;;;;5082637;28;20053;-78
2023/06/24 00:53:34;;;;;;;7.25;4.78;;;16.60;79.70;;;;;;5064344;28;20053;-79
2023/06/24 00:56:03;;;;;;;7.28;4.82;;;16.50;79.70;;;;;;5067272;28;20041;-79
2023/06/24 00:58:30;;;;;;;8.57;4.47;;;16.60;79.50;;;;;;5065905;28;20040;-80
2023/06/24 01:00:58;;;;;;;7.43;4.85;;;16.60;79.50;;;;;;5068730;28;20140;-80
2023/06/24 01:03:25;;;;;;;6.18;4.78;;;16.50;79.60;;;;;;5065791;28;20044;-78
2023/06/24 01:05:53;;;;;;;7.10;4.70;;;16.50;79.50;;;;;;5068022;28;20094;-78
2023/06/24 01:08:22;;;;;;;6.35;4.57;;;16.50;79.60;;;;;;5068768;28;20090;-78
2023/06/24 01:10:50;;;;;;;7.05;4.68;;;16.50;79.60;;;;;;5081213;28;20135;-78
2023/06/24 01:13:20;;;;;;;7.32;5.03;;;16.40;79.70;;;;;;5069892;28;20044;-78
2023/06/24 01:15:47;;;;;;;6.82;4.32;;;16.40;79.80;;;;;;5079161;28;20056;-78
2023/06/24 01:18:22;;;;;;;6.47;4.40;;;16.30;79.80;;;;;;5070713;28;20049;-78
2023/06/24 01:20:54;;;;;;;6.45;4.20;;;16.30;79.80;;;;;;5071887;28;20040;-80
2023/06/24 01:23:51;;;;;;;9.43;4.22;;;16.30;79.80;;;;;;5069359;28;20037;-81
2023/06/24 01:26:45;;;;;;;6.75;4.40;;;16.20;79.80;;;;;;5070126;28;20051;-78
2023/06/24 01:29:50;;;;;;;7.10;4.55;;;16.20;79.90;;;;;;5071395;28;20048;-79
2023/06/24 01:32:23;;;;;;;7.70;4.45;;;16.10;80.00;;;;;;5051466;28;20063;-80
2023/06/24 01:34:57;;;;;;;6.60;4.43;;;16.10;80.10;;;;;;5082410;28;20048;-80
2023/06/24 01:37:31;;;;;;;6.07;3.83;;;16.10;80.00;;;;;;5082201;28;20140;-75
2023/06/24 01:40:09;;;;;;;7.20;4.25;;;16.10;80.00;;;;;;5081653;28;20052;-80
2023/06/24 01:42:39;;;;;;;7.25;4.55;;;16.00;80.10;;;;;;5074583;28;20084;-78
2023/06/24 01:45:10;;;;;;;6.65;4.35;;;16.00;80.00;;;;;;5075210;28;20059;-79
2023/06/24 01:47:40;;;;;;;7.00;4.10;;;16.10;79.90;;;;;;5083773;28;20049;-78
2023/06/24 01:50:12;;;;;;;7.07;4.72;;;16.10;79.80;;;;;;5044521;28;20059;-77
2023/06/24 01:52:42;;;;;;;7.47;4.75;;;16.10;79.70;;;;;;5089549;28;20052;-77
2023/06/24 01:55:11;;;;;;;6.47;4.75;;;16.10;79.80;;;;;;5087588;28;20044;-81
2023/06/24 01:57:41;;;;;;;7.68;4.20;;;16.00;79.80;;;;;;5079590;28;20488;-78
2023/06/24 02:00:10;;;;;;;6.90;4.47;;;16.00;80.00;;;;;;5072224;28;20045;-79
2023/06/24 02:03:00;;;;;;;7.53;4.25;;;16.00;79.80;;;;;;5084984;28;20055;-79
2023/06/24 02:05:29;;;;;;;7.00;4.50;;;16.00;79.60;;;;;;5079518;28;20051;-80
2023/06/24 02:07:57;;;;;;;6.45;4.28;;;15.90;79.60;;;;;;5067166;28;20112;-79
2023/06/24 02:10:25;;;;;;;6.22;4.38;;;15.90;79.70;;;;;;5071218;28;20042;-77
2023/06/24 02:12:54;;;;;;;7.40;4.47;;;15.80;79.70;;;;;;5071202;28;20057;-81
2023/06/24 02:15:23;;;;;;;8.10;4.65;;;15.90;79.70;;;;;;5068864;28;20510;-79
2023/06/24 02:17:51;;;;;;;8.00;4.93;;;15.80;79.60;;;;;;5070569;28;20045;-80
2023/06/24 02:20:21;;;;;;;7.20;5.03;;;15.80;79.70;;;;;;5058860;28;20041;-80
2023/06/24 02:22:49;;;;;;;7.22;4.50;;;15.90;79.60;;;;;;5069739;28;20043;-78
2023/06/24 02:25:16;;;;;;;5.82;4.05;;;15.80;79.70;;;;;;5069394;28;20958;-78
2023/06/24 02:27:44;;;;;;;6.70;4.82;;;15.70;79.80;;;;;;5070724;28;20041;-79
2023/06/24 02:30:12;;;;;;;8.23;4.50;;;15.70;79.90;;;;;;5072306;28;20052;-80
2023/06/24 02:32:38;;;;;;;6.20;4.28;;;15.70;79.80;;;;;;5085442;28;20049;-79
2023/06/24 02:35:07;;;;;;;8.30;4.60;;;15.70;79.80;;;;;;5068483;28;20052;-79
2023/06/24 02:37:35;;;;;;;6.97;4.60;;;15.70;79.80;;;;;;5081476;28;20146;-79
2023/06/24 02:40:05;;;;;;;6.30;4.50;;;15.60;79.70;;;;;;5070629;28;20040;-81
2023/06/24 02:42:31;;;;;;;6.32;4.05;;;15.70;79.80;;;;;;5059388;28;20083;-79
2023/06/24 02:45:00;;;;;;;6.00;4.18;;;15.60;80.00;;;;;;5067693;28;20050;-79
2023/06/24 02:47:28;;;;;;;6.63;4.15;;;15.60;80.00;;;;;;5068890;28;20044;-77
2023/06/24 02:49:57;;;;;;;7.15;4.60;;;15.60;79.80;;;;;;5066027;28;20048;-76
2023/06/24 02:52:28;;;;;;;6.93;4.88;;;15.50;79.80;;;;;;5067448;28;20050;-78
2023/06/24 02:54:58;;;;;;;6.22;4.43;;;15.60;79.80;;;;;;5067219;28;20044;-77
2023/06/24 02:57:44;;;;;;;7.65;4.68;;;15.60;79.90;;;;;;5067313;28;20071;-78
2023/06/24 03:00:33;;;;;;;8.43;4.70;;;15.50;79.90;;;;;;5069021;28;20128;-78
2023/06/24 03:03:09;;;;;;;6.50;4.40;;;15.50;80.00;;;;;;5068222;28;20052;-76
2023/06/24 03:05:41;;;;;;;6.50;4.47;;;15.40;80.00;;;;;;5063285;28;20574;-78
2023/06/24 03:08:08;;;;;;;6.22;4.38;;;15.50;79.90;;;;;;5067711;28;20044;-76
2023/06/24 03:10:38;;;;;;;6.97;4.57;;;15.40;80.00;;;;;;5068399;28;20048;-78
2023/06/24 03:13:08;;;;;;;6.35;4.63;;;15.40;80.00;;;;;;5069164;28;20049;-76
2023/06/24 03:15:43;;;;;;;5.97;3.78;;;15.40;79.80;;;;;;5065048;28;20041;-76
2023/06/24 03:18:10;;;;;;;5.78;3.60;;;15.40;79.70;;;;;;5068743;28;20044;-79
2023/06/24 03:20:38;;;;;;;6.80;4.22;;;15.30;79.70;;;;;;5068994;28;20136;-78
2023/06/24 03:23:08;;;;;;;6.35;3.88;;;15.30;79.80;;;;;;5067461;28;20139;-80
2023/06/24 03:25:38;;;;;;;8.25;3.97;;;15.30;79.80;;;;;;5067161;28;20102;-79
2023/06/24 03:28:07;;;;;;;6.18;4.05;;;15.20;79.90;;;;;;5067624;28;20094;-77
2023/06/24 03:30:36;;;;;;;8.07;4.47;;;15.20;79.90;;;;;;5070343;28;20063;-77
2023/06/24 03:33:03;;;;;;;6.72;4.57;;;15.20;80.00;;;;;;5058978;28;20052;-77
2023/06/24 03:35:32;;;;;;;8.25;4.70;;;15.10;80.20;;;;;;5066023;28;20090;-78
2023/06/24 03:38:02;;;;;;;7.03;4.38;;;15.20;80.10;;;;;;5084827;28;20522;-76
2023/06/24 03:40:31;;;;;;;6.93;4.65;;;15.20;80.00;;;;;;5067816;28;20040;-79
2023/06/24 03:43:00;;;;;;;8.15;4.95;;;15.20;79.80;;;;;;5068351;28;20068;-78
2023/06/24 03:45:27;;;;;;;7.55;4.82;;;15.20;79.90;;;;;;5068435;28;20048;-76
2023/06/24 03:47:54;;;;;;;7.10;4.97;;;15.20;80.00;;;;;;5068486;28;20040;-78
2023/06/24 03:50:21;;;;;;;8.20;4.70;;;15.20;79.80;;;;;;5067562;28;20044;-80
2023/06/24 03:52:48;;;;;;;7.93;4.70;;;15.20;80.00;;;;;;5083877;28;20048;-77
2023/06/24 03:55:16;;;;;;;7.63;4.18;;;15.20;79.90;;;;;;5086249;28;20053;-79
2023/06/24 03:57:43;;;;;;;7.22;4.70;;;15.10;80.00;;;;;;5069314;28;20131;-81
2023/06/24 04:00:16;;;;;;;5.88;4.72;;;15.10;80.20;;;;;;5067732;28;20723;-79
2023/06/24 04:02:45;;;;;;;8.80;5.30;;;15.10;80.40;;;;;;5069587;28;20101;-80
2023/06/24 04:05:12;;;;;;;7.53;4.82;;;15.20;80.30;;;;;;5068952;28;20051;-77
2023/06/24 04:07:39;;;;;;;7.90;5.45;;;15.10;80.30;;;;;;5068644;28;20045;-79
2023/06/24 04:10:08;;;;;;;7.03;4.90;;;15.10;80.30;;;;;;5070573;28;20048;-78
2023/06/24 04:12:36;;;;;;;7.03;4.33;;;15.20;80.30;;;;;;5068834;28;20117;-77
2023/06/24 04:15:04;;;;;;;6.70;4.70;;;15.20;80.30;;;;;;5069676;28;20040;-78
2023/06/24 04:17:34;;;;;;;6.20;4.15;;;15.20;80.20;;;;;;5080957;28;20052;-80
2023/06/24 04:20:03;;;;;;;6.95;4.63;;;15.20;80.30;;;;;;5067982;28;20040;-78
2023/06/24 04:22:31;;;;;;;7.20;4.65;;;15.20;80.30;;;;;;5070293;28;20076;-78
2023/06/24 04:24:59;;;;;;;8.88;4.63;;;15.20;80.30;;;;;;5066938;28;20051;-81
2023/06/24 04:27:26;;;;;;;7.82;5.20;;;15.20;80.30;;;;;;5065696;28;20064;-81
2023/06/24 04:29:53;;;;;;;7.88;5.13;;;15.20;80.30;;;;;;5070771;28;20049;-81
2023/06/24 04:32:20;;;;;;;8.00;5.00;;;15.20;80.40;;;;;;5070843;28;20059;-79
2023/06/24 04:34:49;;;;;;;6.70;4.55;;;15.20;80.40;;;;;;5068687;28;20534;-75
2023/06/24 04:37:17;;;;;;;7.75;4.85;;;15.20;80.40;;;;;;5067975;28;20048;-78
2023/06/24 04:39:45;;;;;;;7.32;4.78;;;15.20;80.60;;;;;;5069578;28;20052;-79
2023/06/24 04:42:14;;;;;;;8.68;5.10;;;15.30;80.60;;;;;;5067684;28;20104;-80
2023/06/24 04:44:41;;;;;;;9.43;5.35;;;15.30;80.80;;;;;;5074020;28;20082;-78
2023/06/24 04:47:08;;;;;;;8.65;5.75;;;15.30;81.20;;;;;;5074416;28;20102;-78
2023/06/24 04:49:35;;;;;;;10.60;5.43;;;15.30;81.30;;;;;;5069873;28;20060;-74
2023/06/24 04:52:07;;;;;;;9.23;5.88;;;15.30;81.50;;;;;;5073663;28;20041;-78
2023/06/24 04:54:34;;;;;;;7.57;5.13;;;15.40;81.60;;;;;;5068016;28;21249;-79
2023/06/24 04:57:01;;;;;;;8.20;5.85;;;15.50;81.40;;;;;;5074920;28;20037;-78
2023/06/24 04:59:28;;;;;;;7.68;4.75;;;15.50;81.30;;;;;;5072233;28;20541;-79
2023/06/24 05:01:55;;;;;;;8.63;6.00;;;15.50;81.50;;;;;;5074900;28;20045;-80
2023/06/24 05:04:22;;;;;;;7.38;5.38;;;15.50;81.50;;;;;;5072059;28;20044;-78
2023/06/24 05:06:49;;;;;;;10.52;5.63;;;15.50;81.40;;;;;;5090075;28;20143;-79
2023/06/24 05:09:18;;;;;;;8.32;5.93;;;15.50;81.40;;;;;;5080228;28;20048;-79
2023/06/24 05:11:45;;;;;;;7.53;5.40;;;15.60;81.40;;;;;;5075008;28;20051;-79
2023/06/24 05:14:12;;;;;;;7.53;5.50;;;15.60;81.30;;;;;;5082729;28;20040;-79
2023/06/24 05:16:39;;;;;;;8.50;5.35;;;15.70;81.10;;;;;;5072304;28;20094;-78
2023/06/24 05:19:05;;;;;;;8.65;4.72;;;15.70;81.10;;;;;;5069552;28;20075;-81
2023/06/24 05:21:32;;;;;;;9.30;5.15;;;15.70;81.10;;;;;;5073177;28;20044;-77
2023/06/24 05:23:59;;;;;;;8.38;5.38;;;15.70;81.20;;;;;;5072628;28;20052;-79
2023/06/24 05:26:28;;;;;;;7.57;5.45;;;15.70;81.30;;;;;;5072900;28;20053;-82
2023/06/24 05:28:55;;;;;;;7.80;5.55;;;15.70;81.20;;;;;;5069735;28;20444;-81
2023/06/24 05:31:22;;;;;;;7.10;5.13;;;15.80;80.90;;;;;;5071421;28;20033;-77
2023/06/24 05:33:49;;;;;;;7.95;5.60;;;15.80;80.80;;;;;;5071850;28;20040;-78
2023/06/24 05:36:16;;;;;;;9.13;5.47;;;15.80;80.80;;;;;;5073540;28;20070;-79
2023/06/24 05:38:43;;;;;;;7.55;5.20;;;15.90;81.20;;;;;;5071686;28;20052;-79
2023/06/24 05:41:10;;;;;;;7.35;5.38;;;15.90;81.10;;;;;;5072325;28;20503;-76
2023/06/24 05:43:38;;;;;;;8.02;5.90;;;15.90;81.10;;;;;;5072235;28;20056;-79
2023/06/24 05:46:05;;;;;;;7.80;5.70;;;16.00;80.50;;;;;;5070607;28;20079;-79
2023/06/24 05:48:32;;;;;;;7.93;5.88;;;16.10;80.90;;;;;;5067243;28;20510;-79
2023/06/24 05:50:59;;;;;;;8.02;5.55;;;16.10;80.70;;;;;;5066360;28;20070;-79
2023/06/24 05:53:26;;;;;;;8.18;5.53;;;16.10;80.50;;;;;;5080512;28;20041;-80
2023/06/24 05:55:52;;;;;;;7.78;5.63;;;16.20;80.60;;;;;;5072013;28;20094;-80
2023/06/24 05:58:19;;;;;;;8.35;5.88;;;16.20;80.80;;;;;;5072215;28;20124;-77
2023/06/24 06:00:48;;;;;;;11.00;5.93;;;16.10;81.20;;;;;;5070779;28;20040;-77
2023/06/24 06:03:15;;;;;;;7.95;5.88;;;16.20;81.00;;;;;;5073486;28;20529;-80
2023/06/24 06:05:41;;;;;;;7.57;5.53;;;16.20;81.00;;;;;;5071866;28;20070;-79
2023/06/24 06:08:08;;;;;;;9.35;5.97;;;16.20;81.50;;;;;;5068318;28;20052;-81
2023/06/24 06:10:35;;;;;;;7.57;5.47;;;16.30;81.10;;;;;;5069944;28;20044;-75
2023/06/24 06:13:02;;;;;;;8.60;5.82;;;16.30;80.80;;;;;;5071181;28;20048;-77
2023/06/24 06:15:29;;;;;;;7.63;5.60;;;16.40;81.10;;;;;;5071553;28;20058;-76
2023/06/24 06:17:57;;;;;;;8.30;5.57;;;16.30;81.30;;;;;;5071506;28;20040;-76
2023/06/24 06:20:24;;;;;;;7.93;6.10;;;16.40;81.00;;;;;;5069412;28;20055;-80
2023/06/24 06:22:51;;;;;;;8.35;5.80;;;16.50;81.50;;;;;;5071228;28;20056;-79
2023/06/24 06:25:18;;;;;;;9.30;5.85;;;16.60;81.40;;;;;;5066228;28;20052;-77
2023/06/24 06:27:45;;;;;;;8.07;5.72;;;16.70;81.40;;;;;;5066059;28;20048;-78
2023/06/24 06:30:14;;;;;;;9.02;5.93;;;16.70;81.00;;;;;;5071364;28;20044;-79
2023/06/24 06:32:41;;;;;;;9.88;5.88;;;16.90;81.10;;;;;;5073007;28;20123;-79
2023/06/24 06:35:10;;;;;;;7.97;5.85;;;17.00;80.80;;;;;;5072762;28;20078;-80
2023/06/24 06:37:40;;;;;;;10.63;6.28;;;17.10;80.70;;;;;;5071049;28;20048;-76
2023/06/24 06:40:09;;;;;;;8.20;5.78;;;17.20;80.70;;;;;;5069237;28;20044;-77
2023/06/24 06:42:36;;;;;;;10.18;6.05;;;17.30;80.20;;;;;;5070872;28;20677;-79
2023/06/24 06:45:03;;;;;;;10.07;6.22;;;17.50;80.10;;;;;;5066930;28;20036;-77
2023/06/24 06:47:29;;;;;;;10.85;6.40;;;17.60;79.90;;;;;;5068969;28;20047;-79
2023/06/24 06:49:56;;;;;;;11.50;6.78;;;17.70;79.90;;;;;;5071954;28;20051;-79
2023/06/24 06:52:25;;;;;;;10.50;6.60;;;17.80;79.70;;;;;;5071650;28;20048;-78
2023/06/24 06:54:51;;;;;;;10.27;6.47;;;18.00;79.40;;;;;;5069582;28;20404;-75
2023/06/24 06:57:18;;;;;;;11.00;6.70;;;18.10;79.00;;;;;;5067052;28;20048;-79
2023/06/24 06:59:45;;;;;;;10.57;6.32;;;18.40;78.80;;;;;;5069617;28;20048;-78
2023/06/24 07:02:12;;;;;;;7.18;5.72;;;18.50;78.40;;;;;;5069912;28;20543;-80
2023/06/24 07:04:39;;;;;;;8.68;6.00;;;18.60;78.20;;;;;;5067331;28;20052;-78
2023/06/24 07:07:06;;;;;;;8.57;6.30;;;18.80;77.60;;;;;;5068541;28;20102;-79
2023/06/24 07:09:34;;;;;;;7.55;5.80;;;18.90;77.30;;;;;;5069392;28;20049;-77
2023/06/24 07:12:02;;;;;;;7.65;6.00;;;19.10;77.30;;;;;;5069267;28;20055;-79
2023/06/24 07:14:28;;;;;;;7.63;5.68;;;19.40;76.70;;;;;;5067270;28;20514;-78
2023/06/24 07:16:55;;;;;;;8.57;5.75;;;19.50;76.30;;;;;;5071448;28;20399;-78
2023/06/24 07:19:22;;;;;;;6.70;5.13;;;19.70;75.90;;;;;;5069716;28;20040;-79
2023/06/24 07:21:49;;;;;;;8.15;5.93;;;19.90;75.40;;;;;;5068171;28;20036;-77
2023/06/24 07:24:16;;;;;;;7.47;5.60;;;20.10;75.10;;;;;;5068785;28;20578;-79
2023/06/24 07:26:44;;;;;;;7.63;5.63;;;20.30;74.70;;;;;;5069860;28;20487;-79
2023/06/24 07:29:11;;;;;;;8.60;5.22;;;20.50;73.90;;;;;;5066184;28;20069;-78
2023/06/24 07:31:38;;;;;;;6.35;5.32;;;20.60;73.00;;;;;;5068584;28;20056;-79
2023/06/24 07:34:05;;;;;;;7.40;5.57;;;20.70;72.30;;;;;;5070073;28;20044;-76
2023/06/24 07:36:32;;;;;;;7.25;4.90;;;21.00;71.80;;;;;;5066404;28;20396;-79
2023/06/24 07:38:59;;;;;;;6.30;5.10;;;21.10;71.20;;;;;;5069934;28;20050;-77
2023/06/24 07:41:26;;;;;;;6.30;4.72;;;21.20;70.60;;;;;;5068484;28;20435;-79
2023/06/24 07:43:54;;;;;;;7.35;5.32;;;21.40;70.10;;;;;;5070876;28;20044;-78
2023/06/24 07:46:22;;;;;;;6.88;4.95;;;21.60;69.70;;;;;;5066589;28;20696;-77
2023/06/24 07:48:48;;;;;;;7.95;5.00;;;21.80;68.90;;;;;;5067789;28;20054;-77
2023/06/24 07:51:15;;;;;;;8.18;5.13;;;21.90;68.60;;;;;;5076122;28;20056;-78
2023/06/24 07:53:42;;;;;;;6.03;4.90;;;22.10;68.20;;;;;;5071609;28;20066;-78
2023/06/24 07:56:09;;;;;;;6.63;5.30;;;22.20;68.10;;;;;;5080178;28;20060;-79
2023/06/24 07:58:38;;;;;;;6.30;4.70;;;22.40;67.60;;;;;;5087951;28;20054;-77
2023/06/24 08:01:06;;;;;;;6.50;4.90;;;22.50;67.30;;;;;;5080274;28;20052;-70
2023/06/24 08:03:33;;;;;;;7.43;5.18;;;22.60;66.80;;;;;;5072039;28;20094;-70
2023/06/24 08:06:00;;;;;;;8.80;5.25;;;22.70;67.10;;;;;;5088411;28;20058;-69
2023/06/24 08:08:27;;;;;;;7.97;5.13;;;22.90;66.60;;;;;;5075886;28;20510;-69
2023/06/24 08:10:53;;;;;;;6.78;4.95;;;23.10;65.80;;;;;;5080871;28;20142;-71
2023/06/24 08:13:20;;;;;;;8.00;5.18;;;23.20;65.10;;;;;;5089342;28;20052;-70
2023/06/24 08:15:47;;;;;;;6.43;4.72;;;23.50;64.30;;;;;;5058005;28;20059;-69
2023/06/24 08:18:16;;;;;;;6.43;4.55;;;23.60;63.80;;;;;;5068211;28;20392;-69
2023/06/24 08:20:43;;;;;;;6.35;4.70;;;23.70;63.00;;;;;;5063202;28;20433;-69
2023/06/24 08:23:10;;;;;;;6.82;4.68;;;23.70;62.00;;;;;;5059218;28;20044;-69
2023/06/24 08:25:37;;;;;;;6.13;4.70;;;23.90;61.60;;;;;;5059806;28;20052;-69
2023/06/24 08:28:04;;;;;;;6.82;4.70;;;24.00;61.20;;;;;;5077220;28;20049;-70
2023/06/24 08:30:31;;;;;;;7.95;4.57;;;24.10;60.80;;;;;;5083365;28;20044;-69
2023/06/24 08:32:58;;;;;;;6.68;4.55;;;24.10;59.90;;;;;;5082975;28;20049;-69
2023/06/24 08:35:26;;;;;;;7.15;4.90;;;24.10;60.00;;;;;;5067769;28;20048;-69
2023/06/24 08:37:53;;;;;;;8.23;4.53;;;24.30;59.40;;;;;;5062160;28;20056;-70
2023/06/24 08:40:20;;;;;;;6.93;4.35;;;24.30;58.50;;;;;;5066212;28;20051;-69
2023/06/24 08:42:47;;;;;;;6.63;4.57;;;24.50;57.70;;;;;;5067506;28;20051;-70
2023/06/24 08:45:14;;;;;;;6.93;4.60;;;24.60;57.40;;;;;;5068161;28;20049;-69
2023/06/24 08:47:41;;;;;;;6.88;4.60;;;24.60;57.20;;;;;;5064656;28;20119;-70
2023/06/24 08:50:12;;;;;;;9.60;5.88;;;24.80;56.50;;;;;;5068139;28;20052;-69
2023/06/24 08:52:44;;;;;;;7.57;6.47;;;24.90;55.50;;;;;;5067572;28;20072;-69
2023/06/24 08:55:14;;;;;;;9.93;8.05;;;25.10;55.10;;;;;;5060253;28;20523;-70
2023/06/24 08:57:41;;;;;;;9.75;7.45;;;25.10;55.20;;;;;;5067297;28;20500;-70
2023/06/24 09:00:10;;;;;;;15.25;12.95;;;25.10;55.10;;;;;;5067847;28;20040;-68
2023/06/24 09:02:38;;;;;;;12.40;9.18;;;25.20;54.70;;;;;;5067134;28;20052;-70
2023/06/24 09:05:05;;;;;;;9.70;7.72;;;25.30;54.40;;;;;;5067007;28;20121;-69
2023/06/24 09:07:32;;;;;;;8.13;6.40;;;25.40;53.10;;;;;;5068248;28;20109;-70
2023/06/24 09:10:01;;;;;;;8.18;6.07;;;25.50;53.20;;;;;;5067163;28;20049;-70
2023/06/24 09:12:28;;;;;;;9.15;6.10;;;25.60;54.10;;;;;;5064162;28;20478;-70
2023/06/24 09:14:55;;;;;;;8.23;6.53;;;25.60;53.90;;;;;;5068552;28;20064;-70
2023/06/24 09:17:23;;;;;;;7.85;6.13;;;25.70;54.30;;;;;;5068890;28;20131;-70
2023/06/24 09:19:50;;;;;;;8.23;6.30;;;25.80;54.10;;;;;;5080349;28;20059;-69
2023/06/24 09:22:18;;;;;;;7.05;6.00;;;25.90;54.00;;;;;;5074491;28;20044;-70
2023/06/24 09:24:46;;;;;;;10.57;8.45;;;26.00;53.70;;;;;;5075319;28;20065;-70
2023/06/24 09:27:16;;;;;;;13.80;11.05;;;26.10;54.10;;;;;;5073792;28;20048;-70
2023/06/24 09:29:44;;;;;;;16.27;14.63;;;26.20;53.60;;;;;;5066131;28;20048;-69
2023/06/24 09:32:11;;;;;;;13.15;9.85;;;26.40;52.90;;;;;;5087884;28;20502;-70
2023/06/24 09:34:39;;;;;;;10.68;8.75;;;26.50;51.60;;;;;;5071598;28;20056;-69
2023/06/24 09:37:06;;;;;;;9.57;8.25;;;26.60;51.90;;;;;;5071122;28;20040;-70
2023/06/24 09:39:38;;;;;;;9.35;7.45;;;26.70;52.20;;;;;;5069963;28;20044;-70
2023/06/24 09:42:06;;;;;;;8.73;6.50;;;26.70;52.20;;;;;;5065969;28;20140;-70
2023/06/24 09:44:34;;;;;;;8.80;7.30;;;26.80;52.00;;;;;;5072225;28;20086;-70
2023/06/24 09:47:05;;;;;;;10.40;8.23;;;26.90;51.50;;;;;;5069701;28;20076;-69
2023/06/24 09:49:32;;;;;;;11.25;9.00;;;26.70;51.10;;;;;;5065823;28;20041;-69
2023/06/24 09:52:00;;;;;;;11.57;7.32;;;26.80;51.40;;;;;;5072073;28;20054;-71
2023/06/24 09:54:28;;;;;;;8.40;6.32;;;27.00;51.00;;;;;;5069176;28;20055;-69
2023/06/24 09:57:00;;;;;;;8.80;6.80;;;27.00;50.70;;;;;;5067881;28;20508;-70
2023/06/24 09:59:28;;;;;;;10.95;9.32;;;27.10;50.70;;;;;;5070609;28;20053;-71
2023/06/24 10:01:58;;;;;;;11.63;10.40;;;27.10;50.20;;;;;;5071633;28;20087;-70
2023/06/24 10:04:27;;;;;;;12.98;11.07;;;27.30;50.20;;;;;;5069779;28;20048;-70
2023/06/24 10:06:55;;;;;;;12.13;10.40;;;27.30;49.80;;;;;;5071242;28;20049;-69
2023/06/24 10:09:21;;;;;;;10.93;9.68;;;27.40;50.20;;;;;;5071119;28;20086;-69
2023/06/24 10:11:48;;;;;;;13.45;11.82;;;27.50;49.70;;;;;;5071009;28;20057;-70
2023/06/24 10:14:16;;;;;;;11.20;9.00;;;27.60;50.00;;;;;;5068706;28;20089;-68
2023/06/24 10:16:43;;;;;;;9.32;8.35;;;27.60;49.30;;;;;;5072744;28;20052;-70
2023/06/24 10:19:21;;;;;;;10.27;9.18;;;27.80;49.50;;;;;;5068642;28;20052;-69
2023/06/24 10:21:51;;;;;;;13.50;12.10;;;27.80;49.20;;;;;;5068968;28;20041;-69
2023/06/24 10:24:33;;;;;;;12.90;10.52;;;27.90;49.40;;;;;;5069697;28;20136;-70
2023/06/24 10:27:04;;;;;;;11.55;10.25;;;28.00;48.90;;;;;;5070221;28;20063;-68
2023/06/24 10:29:35;;;;;;;10.82;9.73;;;28.10;48.30;;;;;;5065660;28;20506;-68
2023/06/24 10:32:07;;;;;;;11.38;10.00;;;28.10;48.20;;;;;;5068502;28;20042;-69
2023/06/24 10:34:43;;;;;;;10.95;8.07;;;28.20;48.10;;;;;;5068238;28;20399;-68
2023/06/24 10:37:12;;;;;;;11.43;10.23;;;28.30;47.50;;;;;;5068705;28;20040;-69
2023/06/24 10:39:49;;;;;;;;;;;28.30;47.50;;;;;;5069439;28;20074;-70
2023/06/24 10:42:38;;;;;;;10.05;8.95;;;28.40;47.40;;;;;;5070374;28;20310;-70
2023/06/24 10:45:15;;;;;;;;;;;28.40;47.30;;;;;;5067160;28;20415;-68
2023/06/24 10:47:43;;;;;;;10.10;8.95;;;28.50;46.90;;;;;;5067473;28;19962;-68
2023/06/24 10:50:14;;;;;;;7.75;6.70;;;28.60;46.50;;;;;;5070996;28;20058;-69
2023/06/24 10:52:44;;;;;;;7.25;5.72;;;28.50;45.90;;;;;;5069795;28;20057;-69
2023/06/24 10:55:11;;;;;;;7.55;6.03;;;28.60;45.50;;;;;;5069287;28;20495;-70
2023/06/24 10:57:38;;;;;;;7.63;6.32;;;28.60;46.60;;;;;;5068811;28;20476;-68
2023/06/24 11:00:07;;;;;;;7.93;7.07;;;28.60;46.70;;;;;;5069538;28;20077;-70
2023/06/24 11:02:34;;;;;;;8.23;6.97;;;28.80;46.00;;;;;;5062043;28;20483;-69
2023/06/24 11:05:02;;;;;;;8.43;6.45;;;28.90;45.40;;;;;;5069725;28;20479;-68
2023/06/24 11:07:31;;;;;;;7.50;6.55;;;29.00;45.70;;;;;;5068609;28;20052;-68
2023/06/24 11:10:00;;;;;;;10.93;9.82;;;29.10;46.10;;;;;;5070943;28;20061;-69
2023/06/24 11:12:28;;;;;;;10.35;8.52;;;29.10;45.90;;;;;;5069302;28;20044;-69
2023/06/24 11:14:58;;;;;;;8.87;7.40;;;29.10;45.50;;;;;;5069357;28;20062;-69
2023/06/24 11:17:25;;;;;;;8.00;6.35;;;29.10;45.20;;;;;;5069384;28;20538;-69
2023/06/24 11:19:54;;;;;;;7.63;6.13;;;29.10;45.10;;;;;;5065336;28;20072;-70
2023/06/24 11:22:21;;;;;;;7.10;5.85;;;29.10;44.90;;;;;;5068940;28;20056;-69
2023/06/24 11:24:49;;;;;;;6.85;5.47;;;29.20;44.30;;;;;;5069402;28;20104;-69
2023/06/24 11:27:16;;;;;;;6.63;4.70;;;29.30;43.10;;;;;;5063366;28;20572;-69
2023/06/24 11:29:47;;;;;;;7.38;4.82;;;29.50;43.30;;;;;;5066973;28;20043;-68
2023/06/24 11:32:14;;;;;;;6.85;5.07;;;29.30;44.20;;;;;;5067546;28;20055;-69
2023/06/24 11:34:41;;;;;;;6.22;4.97;;;29.00;44.10;;;;;;5068159;28;20572;-68
2023/06/24 11:37:12;;;;;;;5.88;4.82;;;29.00;43.70;;;;;;5063983;28;20478;-69
2023/06/24 11:39:39;;;;;;;7.75;4.60;;;29.10;44.70;;;;;;5066089;28;20055;-69
2023/06/24 11:42:09;;;;;;;5.63;4.43;;;29.20;43.60;;;;;;5064009;28;20048;-69
2023/06/24 11:44:41;;;;;;;5.30;4.10;;;29.30;43.00;;;;;;5061513;28;20403;-69
2023/06/24 11:47:10;;;;;;;6.35;4.22;;;29.50;42.90;;;;;;5064512;28;20071;-69
2023/06/24 11:49:49;;;;;;;4.95;4.13;;;29.60;42.90;;;;;;5062584;28;20060;-69
2023/06/24 11:52:16;;;;;;;4.90;4.20;;;29.70;42.90;;;;;;5068594;28;20094;-71
2023/06/24 11:54:43;;;;;;;5.35;4.47;;;29.80;42.50;;;;;;5066638;28;20454;-68
2023/06/24 11:57:12;;;;;;;5.53;4.60;;;29.90;42.00;;;;;;5069271;28;20064;-69
2023/06/24 11:59:39;;;;;;;6.32;4.10;;;30.00;42.00;;;;;;5066108;28;20050;-69
2023/06/24 12:02:06;;;;;;;6.80;4.68;;;30.10;41.50;;;;;;5068937;28;20048;-70
2023/06/24 12:04:35;;;;;;;6.88;4.28;;;30.10;41.80;;;;;;5067299;28;20415;-69
2023/06/24 12:07:01;;;;;;;6.70;4.25;;;30.10;42.00;;;;;;5068667;28;20042;-68
2023/06/24 12:09:29;;;;;;;5.65;3.78;;;30.00;41.50;;;;;;5067659;28;20055;-67
2023/06/24 12:11:56;;;;;;;5.25;4.18;;;29.70;41.00;;;;;;5067297;28;20047;-68
2023/06/24 12:14:24;;;;;;;5.72;3.90;;;29.30;41.80;;;;;;5069179;28;20051;-68
2023/06/24 12:16:51;;;;;;;5.47;4.28;;;29.20;41.90;;;;;;5067404;28;20075;-69
2023/06/24 12:19:20;;;;;;;5.43;4.18;;;29.10;41.90;;;;;;5063857;28;20049;-69
2023/06/24 12:21:47;;;;;;;;;;;29.10;41.80;;;;;;5068436;28;25450;-68
2023/06/24 12:24:13;;;;;;;4.07;3.33;;;28.90;42.10;;;;;;5070298;28;19935;-68
2023/06/24 12:26:40;;;;;;;5.50;4.05;;;28.80;42.40;;;;;;5069223;28;20052;-68
2023/06/24 12:29:07;;;;;;;8.48;5.70;;;28.70;43.00;;;;;;5066047;28;20055;-68
2023/06/24 12:31:36;;;;;;;7.13;5.50;;;28.70;41.90;;;;;;5067602;28;20052;-68
2023/06/24 12:34:05;;;;;;;7.18;5.68;;;28.70;42.10;;;;;;5062708;28;20056;-68
2023/06/24 12:36:32;;;;;;;6.90;5.22;;;28.70;42.40;;;;;;5065734;28;20037;-69
2023/06/24 12:38:59;;;;;;;5.60;4.68;;;28.50;42.60;;;;;;5065535;28;20061;-68
2023/06/24 12:41:28;;;;;;;6.45;4.72;;;28.50;43.00;;;;;;5067577;28;20571;-69
2023/06/24 12:43:54;;;;;;;5.80;4.63;;;28.40;43.90;;;;;;5067688;28;20051;-70
2023/06/24 12:46:21;;;;;;;5.28;4.20;;;28.50;43.60;;;;;;5067198;28;20059;-68
2023/06/24 12:48:50;;;;;;;6.20;4.40;;;28.40;43.20;;;;;;5066544;28;20048;-67
2023/06/24 12:51:17;;;;;;;5.38;3.80;;;28.40;43.50;;;;;;5067937;28;20067;-68
2023/06/24 12:53:44;;;;;;;5.88;4.20;;;28.30;43.40;;;;;;5067707;28;20411;-68